createdAt,value
2018-07-22T00:22:26.037Z,93.61
2018-07-22T00:24:55.275Z,97.24
2018-07-22T00:27:24.548Z,96.88
2018-07-22T00:29:53.807Z,96.64
2018-07-22T00:32:23.044Z,97.02
2018-07-22T00:34:52.286Z,98.03
2018-07-22T00:37:21.523Z,99.79
2018-07-22T00:39:50.770Z,100.00
2018-07-22T00:42:20.105Z,100.00
2018-07-22T00:44:49.352Z,99.41
2018-07-22T00:47:18.915Z,100.00
2018-07-22T00:49:48.202Z,100.00
2018-07-22T00:52:17.842Z,99.78
2018-07-22T00:54:47.146Z,99.11
2018-07-22T00:57:16.404Z,99.51
2018-07-22T00:59:45.720Z,98.88
2018-07-22T01:02:14.893Z,99.44
2018-07-22T01:04:44.216Z,100.00
2018-07-22T01:07:13.603Z,99.46
2018-07-22T01:10:14.726Z,99.59
2018-07-22T01:12:44.045Z,99.30
2018-07-22T01:15:13.259Z,98.54
2018-07-22T01:17:42.512Z,98.49
2018-07-22T01:20:11.831Z,99.17
2018-07-22T01:22:40.829Z,99.48
2018-07-22T01:25:10.080Z,99.45
2018-07-22T01:27:39.321Z,99.99
2018-07-22T01:30:09.978Z,99.53
2018-07-22T01:32:39.732Z,99.91
2018-07-22T01:35:09.149Z,99.23
2018-07-22T01:37:38.423Z,99.67
2018-07-22T01:40:07.985Z,99.24
2018-07-22T01:42:37.265Z,99.47
2018-07-22T01:45:06.594Z,99.73
2018-07-22T01:47:35.607Z,98.54
2018-07-22T01:50:05.255Z,98.85
2018-07-22T01:52:34.531Z,99.52
2018-07-22T01:55:03.823Z,98.67
2018-07-22T01:57:33.014Z,98.83
2018-07-22T02:00:02.304Z,97.95
2018-07-22T02:02:31.568Z,98.35
2018-07-22T02:05:00.834Z,97.25
2018-07-22T02:07:30.281Z,97.99
2018-07-22T02:09:59.670Z,98.28
2018-07-22T02:12:28.940Z,98.14
2018-07-22T02:14:58.199Z,97.56
2018-07-22T02:17:27.591Z,97.72
2018-07-22T02:19:56.885Z,97.93
2018-07-22T02:22:26.180Z,98.30
2018-07-22T02:24:55.450Z,97.48
2018-07-22T02:27:24.808Z,97.39
2018-07-22T02:29:54.053Z,97.26
2018-07-22T02:32:23.323Z,97.27
2018-07-22T02:34:52.578Z,98.43
2018-07-22T02:37:21.875Z,97.49
2018-07-22T02:39:51.169Z,97.04
2018-07-22T02:42:20.479Z,97.87
2018-07-22T02:44:49.724Z,97.28
2018-07-22T02:47:19.009Z,97.95
2018-07-22T02:49:48.340Z,97.68
2018-07-22T02:52:17.689Z,98.25
2018-07-22T02:54:47.044Z,99.02
2018-07-22T02:57:16.276Z,98.49
2018-07-22T02:59:45.606Z,99.15
2018-07-22T03:02:14.859Z,99.16
2018-07-22T03:04:44.127Z,98.56
2018-07-22T03:07:13.408Z,98.68
2018-07-22T03:09:42.995Z,98.96
2018-07-22T03:12:12.281Z,98.48
2018-07-22T03:14:44.402Z,98.87
2018-07-22T03:17:13.959Z,99.94
2018-07-22T03:19:43.196Z,98.78
2018-07-22T03:22:12.430Z,98.67
2018-07-22T03:24:41.650Z,99.25
2018-07-22T03:27:11.066Z,99.42
2018-07-22T03:29:40.299Z,98.82
2018-07-22T03:32:09.580Z,99.17
2018-07-22T03:34:38.885Z,99.56
2018-07-22T03:37:08.378Z,99.92
2018-07-22T03:39:37.630Z,99.54
2018-07-22T03:42:06.969Z,99.93
2018-07-22T03:44:36.211Z,100.00
2018-07-22T03:47:05.634Z,100.00
2018-07-22T03:49:36.028Z,100.00
2018-07-22T03:52:05.250Z,100.00
2018-07-22T03:54:34.506Z,100.00
2018-07-22T03:57:03.811Z,100.00
2018-07-22T03:59:33.050Z,100.00
2018-07-22T04:02:02.315Z,100.00
2018-07-22T04:04:31.606Z,100.00
2018-07-22T04:07:00.907Z,100.00
2018-07-22T04:09:30.103Z,100.00
2018-07-22T04:11:59.354Z,100.00
2018-07-22T04:14:28.583Z,100.00
2018-07-22T04:16:57.948Z,100.00
2018-07-22T04:19:27.221Z,100.00
2018-07-22T04:21:56.512Z,100.00
2018-07-22T04:24:25.802Z,100.00
2018-07-22T04:26:55.069Z,100.00
2018-07-22T04:29:24.318Z,100.00
2018-07-22T04:31:53.603Z,100.00
2018-07-22T04:34:22.834Z,100.00
2018-07-22T04:36:52.081Z,100.00
2018-07-22T04:39:21.305Z,100.00
2018-07-22T04:41:50.633Z,100.00
2018-07-22T04:44:19.887Z,100.00
2018-07-22T04:46:49.164Z,100.00
2018-07-22T04:49:18.404Z,100.00
2018-07-22T04:51:47.636Z,100.00
2018-07-22T04:54:16.860Z,100.00
2018-07-22T04:56:46.149Z,100.00
2018-07-22T04:59:15.425Z,100.00
2018-07-22T05:01:44.671Z,100.00
2018-07-22T05:04:13.923Z,100.00
2018-07-22T05:06:43.147Z,100.00
2018-07-22T05:09:13.312Z,100.00
2018-07-22T05:11:42.737Z,100.00
2018-07-22T05:14:13.432Z,100.00
2018-07-22T05:16:42.680Z,100.00
2018-07-22T05:19:11.899Z,100.00
2018-07-22T05:21:41.137Z,100.00
2018-07-22T05:24:10.356Z,100.00
2018-07-22T05:26:39.577Z,100.00
2018-07-22T05:29:08.874Z,100.00
2018-07-22T05:31:38.123Z,100.00
2018-07-22T05:34:07.434Z,100.00
2018-07-22T05:36:36.662Z,100.00
2018-07-22T05:39:09.947Z,100.00
2018-07-22T05:41:39.310Z,100.00
2018-07-22T05:44:08.584Z,100.00
2018-07-22T05:46:37.910Z,100.00
2018-07-22T05:49:07.164Z,99.34
2018-07-22T05:51:36.374Z,99.33
2018-07-22T05:54:05.846Z,100.00
2018-07-22T05:56:35.028Z,100.00
2018-07-22T05:59:04.297Z,99.82
2018-07-22T06:01:33.600Z,99.61
2018-07-22T06:33:33.932Z,98.65
2018-07-22T06:38:39.381Z,97.82
2018-07-22T06:41:08.639Z,97.62
2018-07-22T06:43:40.877Z,97.09
2018-07-22T06:46:10.827Z,96.91
2018-07-22T06:48:40.043Z,96.93
2018-07-22T06:51:09.254Z,97.03
2018-07-22T06:53:38.779Z,96.89
2018-07-22T06:56:08.012Z,96.57
2018-07-22T06:58:37.246Z,97.40
2018-07-22T07:01:07.085Z,98.14
2018-07-22T07:03:36.313Z,97.90
2018-07-22T07:06:05.578Z,97.90
2018-07-22T07:08:34.879Z,96.83
2018-07-22T07:11:04.088Z,97.55
2018-07-22T07:13:33.313Z,97.82
2018-07-22T07:16:02.588Z,98.67
2018-07-22T07:18:31.955Z,98.97
2018-07-22T07:21:01.189Z,98.90
2018-07-22T07:23:30.530Z,99.10
2018-07-22T07:25:59.794Z,98.98
2018-07-22T07:28:29.114Z,98.93
2018-07-22T07:30:58.338Z,99.17
2018-07-22T07:33:27.611Z,99.25
2018-07-22T07:35:56.868Z,98.12
2018-07-22T07:38:26.188Z,98.84
2018-07-22T07:40:55.495Z,98.59
2018-07-22T07:43:24.778Z,98.50
2018-07-22T07:45:53.998Z,98.69
2018-07-22T07:48:23.269Z,99.37
2018-07-22T07:50:52.556Z,99.17
2018-07-22T07:53:21.830Z,98.65
2018-07-22T07:55:51.106Z,98.32
2018-07-22T07:58:20.388Z,98.44
2018-07-22T08:00:50.797Z,98.48
2018-07-22T08:03:20.131Z,97.39
2018-07-22T08:05:49.437Z,97.23
2018-07-22T08:08:18.685Z,97.13
2018-07-22T08:10:47.977Z,98.08
2018-07-22T08:13:17.218Z,96.00
2018-07-22T08:15:46.548Z,95.63
2018-07-22T08:18:15.832Z,96.50
2018-07-22T08:20:45.064Z,96.68
2018-07-22T08:23:14.322Z,96.68
2018-07-22T08:25:43.590Z,96.54
2018-07-22T08:28:12.908Z,95.29
2018-07-22T08:30:42.158Z,94.22
2018-07-22T08:33:11.417Z,92.53
2018-07-22T08:35:40.662Z,92.92
2018-07-22T08:38:09.703Z,94.74
2018-07-22T08:40:38.972Z,95.72
2018-07-22T08:43:08.370Z,93.65
2018-07-22T08:45:37.357Z,91.29
2018-07-22T08:48:07.726Z,91.04
2018-07-22T08:50:37.026Z,91.97
2018-07-22T08:53:06.730Z,91.02
2018-07-22T08:55:36.237Z,90.25
2018-07-22T08:58:06.090Z,91.43
2018-07-22T09:00:35.379Z,91.64
2018-07-22T09:03:04.626Z,89.35
2018-07-22T09:05:33.888Z,89.49
2018-07-22T09:08:03.109Z,91.67
2018-07-22T09:10:32.383Z,91.84
2018-07-22T09:13:01.688Z,92.13
2018-07-22T09:15:30.953Z,92.47
2018-07-22T09:18:00.249Z,91.20
2018-07-22T09:20:29.526Z,90.33
2018-07-22T09:22:58.767Z,85.08
2018-07-22T09:25:28.040Z,86.51
2018-07-22T09:27:57.269Z,85.49
2018-07-22T09:30:26.546Z,85.46
2018-07-22T09:32:55.865Z,86.85
2018-07-22T09:35:25.127Z,86.93
2018-07-22T09:37:54.374Z,87.50
2018-07-22T09:40:23.657Z,84.43
2018-07-22T09:42:53.045Z,85.04
2018-07-22T09:45:22.341Z,82.23
2018-07-22T09:47:51.599Z,82.89
2018-07-22T09:50:20.888Z,81.48
2018-07-22T09:52:50.346Z,81.22
2018-07-22T09:55:19.643Z,79.62
2018-07-22T09:57:49.122Z,78.38
2018-07-22T10:00:23.864Z,80.21
2018-07-22T10:02:53.078Z,81.58
2018-07-22T10:05:22.308Z,84.93
2018-07-22T10:07:51.538Z,84.83
2018-07-22T10:10:20.782Z,86.72
2018-07-22T10:12:50.283Z,88.15
2018-07-22T10:15:19.525Z,88.90
2018-07-22T10:17:48.741Z,89.91
2018-07-22T10:20:18.037Z,90.10
2018-07-22T10:22:47.323Z,91.32
2018-07-22T10:25:16.563Z,91.95
2018-07-22T10:27:45.789Z,90.95
2018-07-22T10:30:15.023Z,91.54
2018-07-22T10:32:44.241Z,93.59
2018-07-22T11:02:42.295Z,94.69
2018-07-22T11:05:11.574Z,95.38
2018-07-22T11:07:40.867Z,95.35
2018-07-22T11:10:11.058Z,94.03
2018-07-22T11:12:40.407Z,91.79
2018-07-22T11:15:09.717Z,91.44
2018-07-22T11:17:38.997Z,93.26
2018-07-22T11:20:08.325Z,91.46
2018-07-22T11:22:37.571Z,90.00
2018-07-22T11:25:06.856Z,90.51
2018-07-22T11:27:36.160Z,89.62
2018-07-22T11:30:06.025Z,89.71
2018-07-22T11:32:35.266Z,89.87
2018-07-22T11:35:04.601Z,90.27
2018-07-22T11:37:33.890Z,90.14
2018-07-22T11:40:03.142Z,87.60
2018-07-22T11:42:32.402Z,86.26
2018-07-22T11:45:01.648Z,88.72
2018-07-22T11:47:30.957Z,90.41
2018-07-22T11:50:00.195Z,90.68
2018-07-22T11:52:29.433Z,91.61
2018-07-22T11:54:58.682Z,91.82
2018-07-22T11:57:27.934Z,90.08
2018-07-22T11:59:57.217Z,91.21
2018-07-22T12:02:26.516Z,90.71
2018-07-22T12:04:55.770Z,90.65
2018-07-22T12:07:25.031Z,90.28
2018-07-22T12:42:41.572Z,89.47
2018-07-22T12:47:48.875Z,83.03
2018-07-22T12:50:21.133Z,82.80
2018-07-22T12:52:51.492Z,81.94
2018-07-22T12:55:22.785Z,80.86
2018-07-22T12:57:53.093Z,79.62
2018-07-22T13:00:24.252Z,83.00
2018-07-22T13:02:54.781Z,81.71
2018-07-22T13:05:25.924Z,81.39
2018-07-22T13:07:56.634Z,80.73
2018-07-22T13:10:27.325Z,81.62
2018-07-22T13:12:57.840Z,80.47
2018-07-22T13:15:28.753Z,81.63
2018-07-22T13:17:59.075Z,81.42
2018-07-22T13:20:30.216Z,80.01
2018-07-22T13:23:00.764Z,81.23
2018-07-22T13:25:31.621Z,86.79
2018-07-22T13:28:02.449Z,83.82
2018-07-22T13:30:33.159Z,83.16
2018-07-22T13:33:04.880Z,84.23
2018-07-22T13:35:35.874Z,83.02
2018-07-22T13:38:07.417Z,85.36
2018-07-22T13:40:38.103Z,83.47
2018-07-22T13:43:09.986Z,81.67
2018-07-22T13:45:41.552Z,83.57
2018-07-22T13:48:11.963Z,82.62
2018-07-22T13:50:42.769Z,84.33
2018-07-22T13:53:13.323Z,82.50
2018-07-22T13:55:43.744Z,82.69
2018-07-22T13:58:14.053Z,82.34
2018-07-22T14:00:44.733Z,83.61
2018-07-22T14:03:14.983Z,84.20
2018-07-22T14:05:45.888Z,83.07
2018-07-22T14:08:17.495Z,83.48
2018-07-22T14:10:47.813Z,82.53
2018-07-22T14:13:18.969Z,85.60
2018-07-22T14:15:50.985Z,84.14
2018-07-22T14:18:21.100Z,82.80
2018-07-22T14:20:51.873Z,83.50
2018-07-22T14:23:21.958Z,84.97
2018-07-22T14:25:51.292Z,90.24
2018-07-22T14:28:20.557Z,88.33
2018-07-22T14:30:49.871Z,88.47
2018-07-22T14:33:19.118Z,85.71
2018-07-22T14:35:48.410Z,84.91
2018-07-22T14:38:17.656Z,84.57
2018-07-22T14:40:46.958Z,83.50
2018-07-22T14:43:16.124Z,82.69
2018-07-22T14:45:45.363Z,81.77
2018-07-22T14:48:14.660Z,81.26
2018-07-22T14:50:43.923Z,81.17
2018-07-22T14:53:13.154Z,81.06
2018-07-22T14:55:42.387Z,80.38
2018-07-22T14:58:11.652Z,81.90
2018-07-22T15:00:40.887Z,82.76
2018-07-22T15:03:10.131Z,82.61
2018-07-22T15:05:39.382Z,79.46
2018-07-22T15:08:08.616Z,81.66
2018-07-22T15:10:37.870Z,81.87
2018-07-22T15:13:07.149Z,86.13
2018-07-22T15:15:36.391Z,89.56
2018-07-22T15:18:05.662Z,91.01
2018-07-22T15:20:34.944Z,92.58
2018-07-22T15:23:04.166Z,91.61
2018-07-22T15:25:33.397Z,91.29
2018-07-22T15:28:02.676Z,93.00
2018-07-22T15:30:31.962Z,91.13
2018-07-22T15:33:01.188Z,89.11
2018-07-22T15:35:30.416Z,87.41
2018-07-22T15:37:59.645Z,88.54
2018-07-22T15:40:28.862Z,88.44
2018-07-22T15:42:58.187Z,88.49
2018-07-22T15:45:28.657Z,87.06
2018-07-22T15:47:57.895Z,88.07
2018-07-22T15:50:27.148Z,88.06
2018-07-22T15:52:56.416Z,88.65
2018-07-22T15:55:25.835Z,87.05
2018-07-22T15:57:55.006Z,87.40
2018-07-22T16:00:24.263Z,87.88
2018-07-22T16:02:53.547Z,86.29
2018-07-22T16:05:22.858Z,85.93
2018-07-22T16:07:52.207Z,86.04
2018-07-22T16:10:21.601Z,88.06
2018-07-22T16:12:50.917Z,86.25
2018-07-22T16:15:20.262Z,87.57
2018-07-22T16:17:49.654Z,82.92
2018-07-22T16:20:19.046Z,81.77
2018-07-22T16:22:48.395Z,81.28
2018-07-22T16:25:18.710Z,82.97
2018-07-22T16:27:48.045Z,84.94
2018-07-22T16:30:17.407Z,82.05
2018-07-22T16:32:46.672Z,82.97
2018-07-22T16:35:15.898Z,84.28
2018-07-22T16:37:45.158Z,85.19
2018-07-22T16:40:14.397Z,86.86
2018-07-22T16:42:43.726Z,83.56
2018-07-22T16:45:13.008Z,82.36
2018-07-22T16:47:42.270Z,81.52
2018-07-22T16:50:11.509Z,82.94
2018-07-22T16:52:40.826Z,85.91
2018-07-22T16:55:10.124Z,83.01
2018-07-22T16:57:39.403Z,86.69
2018-07-22T17:00:08.689Z,86.84
2018-07-22T17:02:38.010Z,86.90
2018-07-22T17:05:07.216Z,86.69
2018-07-22T17:07:36.451Z,88.54
2018-07-22T17:10:05.714Z,88.71
2018-07-22T17:12:34.972Z,87.37
2018-07-22T17:15:04.252Z,87.01
2018-07-22T17:17:33.523Z,87.31
2018-07-22T17:20:02.774Z,86.88
2018-07-22T17:22:32.023Z,85.68
2018-07-22T17:25:01.286Z,85.76
2018-07-22T17:27:30.509Z,86.49
2018-07-22T17:29:59.725Z,85.10
2018-07-22T17:32:28.955Z,86.52
2018-07-22T17:34:58.195Z,87.19
2018-07-22T17:37:28.189Z,87.53
2018-07-22T17:40:01.374Z,90.12
2018-07-22T17:42:32.205Z,88.86
2018-07-22T17:45:01.444Z,88.36
2018-07-22T17:47:31.135Z,89.73
2018-07-22T17:50:00.398Z,89.86
2018-07-22T17:52:29.629Z,87.57
2018-07-22T17:54:58.886Z,89.57
2018-07-22T17:57:28.163Z,91.64
2018-07-22T17:59:57.394Z,91.33
2018-07-22T18:02:26.618Z,91.07
2018-07-22T18:04:55.933Z,92.50
2018-07-22T18:07:25.097Z,93.66
2018-07-22T18:09:54.306Z,93.97
2018-07-22T18:12:23.593Z,93.90
2018-07-22T18:14:52.815Z,93.68
2018-07-22T18:17:22.061Z,93.21
2018-07-22T18:19:51.303Z,93.24
2018-07-22T18:22:20.564Z,92.88
2018-07-22T18:24:49.806Z,92.73
2018-07-22T18:27:19.074Z,93.31
2018-07-22T18:29:48.314Z,95.20
2018-07-22T18:32:17.571Z,96.11
2018-07-22T18:34:46.815Z,94.80
2018-07-22T18:37:16.185Z,94.11
2018-07-22T18:39:45.338Z,94.78
2018-07-22T18:42:14.609Z,94.86
2018-07-22T18:44:44.092Z,94.68
2018-07-22T18:47:13.347Z,95.01
2018-07-22T18:49:42.648Z,95.23
2018-07-22T18:52:11.907Z,96.21
2018-07-22T18:54:41.108Z,96.22
2018-07-22T18:57:10.546Z,96.20
2018-07-22T18:59:39.835Z,96.29
2018-07-22T19:02:09.455Z,96.14
2018-07-22T19:04:39.685Z,96.96
2018-07-22T19:07:08.937Z,96.41
2018-07-22T19:09:38.176Z,95.86
2018-07-22T19:12:07.404Z,95.64
2018-07-22T19:14:36.659Z,95.63
2018-07-22T19:17:05.895Z,94.75
2018-07-22T19:19:35.371Z,94.43
2018-07-22T19:22:04.638Z,95.86
2018-07-22T19:24:33.912Z,95.11
2018-07-22T19:27:03.129Z,95.65
2018-07-22T19:29:32.409Z,96.04
2018-07-22T19:32:01.642Z,95.56
2018-07-22T19:34:30.966Z,95.77
2018-07-22T19:37:00.199Z,94.85
2018-07-22T19:39:29.456Z,95.02
2018-07-22T19:41:58.730Z,95.25
2018-07-22T19:44:28.007Z,95.43
2018-07-22T19:46:57.225Z,95.15
2018-07-22T19:49:26.515Z,95.28
2018-07-22T19:51:55.790Z,95.31
2018-07-22T19:54:25.027Z,95.53
2018-07-22T19:56:54.294Z,96.22
2018-07-22T19:59:23.545Z,95.45
2018-07-22T20:01:52.754Z,96.54
2018-07-22T20:04:22.054Z,96.00
2018-07-22T20:06:51.341Z,97.63
2018-07-22T20:09:20.630Z,97.27
2018-07-22T20:11:49.848Z,97.13
2018-07-22T20:14:19.112Z,97.49
2018-07-22T20:16:48.356Z,98.09
2018-07-22T20:19:17.610Z,97.33
2018-07-22T20:21:46.868Z,98.20
2018-07-22T20:24:17.227Z,96.53
2018-07-22T20:26:46.402Z,95.86
2018-07-22T20:29:15.665Z,97.39
2018-07-22T20:31:44.941Z,96.79
2018-07-22T20:34:14.146Z,96.01
2018-07-22T20:36:43.375Z,95.47
2018-07-22T20:39:12.811Z,96.05
2018-07-22T20:41:42.235Z,96.37
2018-07-22T20:44:11.474Z,96.32
2018-07-22T20:46:40.721Z,96.41
2018-07-22T20:49:09.952Z,96.42
2018-07-22T20:51:39.221Z,95.86
2018-07-22T20:54:08.451Z,95.74
2018-07-22T20:56:37.724Z,96.54
2018-07-22T20:59:06.946Z,96.86
2018-07-22T21:01:36.174Z,96.91
2018-07-22T21:04:05.457Z,97.69
2018-07-22T21:06:34.732Z,97.12
2018-07-22T21:09:05.345Z,96.89
2018-07-22T21:11:51.319Z,98.17
2018-07-22T21:14:20.574Z,97.67
2018-07-22T21:16:49.814Z,98.08
2018-07-22T21:19:19.066Z,97.65
2018-07-22T21:21:48.301Z,97.91
2018-07-22T21:24:17.539Z,97.58
2018-07-22T21:26:46.837Z,98.31
2018-07-22T21:29:16.067Z,97.61
2018-07-22T21:31:45.306Z,99.00
2018-07-22T21:34:14.550Z,99.91
2018-07-22T21:36:43.827Z,99.91
2018-07-22T21:39:13.055Z,97.19
2018-07-22T21:41:42.309Z,97.12
2018-07-22T21:44:11.549Z,96.03
2018-07-22T21:46:40.791Z,96.73
2018-07-22T21:49:10.056Z,96.81
2018-07-22T21:51:39.297Z,96.89
2018-07-22T21:54:08.897Z,96.93
2018-07-22T21:56:38.148Z,97.77
2018-07-22T21:59:07.618Z,97.67
2018-07-22T22:01:36.905Z,98.36
2018-07-22T22:04:06.156Z,98.84
2018-07-22T22:06:35.384Z,98.36
2018-07-22T22:09:05.771Z,98.33
2018-07-22T22:11:34.999Z,98.37
2018-07-22T22:14:04.248Z,97.72
2018-07-22T22:16:33.499Z,96.90
2018-07-22T22:19:02.747Z,97.34
2018-07-22T22:21:31.999Z,97.07
2018-07-22T22:24:01.273Z,96.97
2018-07-22T22:26:30.537Z,97.68
2018-07-22T22:28:59.829Z,97.33
2018-07-22T22:31:29.106Z,97.23
2018-07-22T22:33:58.316Z,97.34
2018-07-22T22:36:27.554Z,97.28
2018-07-22T22:38:56.782Z,96.70
2018-07-22T22:41:26.029Z,96.69
2018-07-22T22:43:55.254Z,97.74
2018-07-22T22:46:24.489Z,97.43
2018-07-22T22:48:53.747Z,97.49
2018-07-22T22:51:23.048Z,96.75
2018-07-22T22:53:52.347Z,97.36
2018-07-22T22:56:21.582Z,96.64
2018-07-22T22:59:07.731Z,96.72
2018-07-22T23:01:37.212Z,97.22
2018-07-22T23:04:06.599Z,96.47
2018-07-22T23:06:35.822Z,97.37
2018-07-22T23:09:10.037Z,97.08
2018-07-22T23:11:39.550Z,95.79
2018-07-22T23:14:08.816Z,96.15
2018-07-22T23:16:38.817Z,95.72
2018-07-22T23:19:08.178Z,97.92
2018-07-22T23:21:37.426Z,96.93
2018-07-22T23:24:06.686Z,96.09
2018-07-22T23:26:35.906Z,96.26
2018-07-22T23:29:06.267Z,96.21
2018-07-22T23:31:35.481Z,96.50
2018-07-22T23:34:04.719Z,96.99
2018-07-22T23:36:33.963Z,97.05
2018-07-22T23:39:03.242Z,97.43
2018-07-22T23:41:32.483Z,97.72
2018-07-22T23:44:01.767Z,97.86
2018-07-22T23:46:31.013Z,98.04
2018-07-22T23:49:00.280Z,97.66
2018-07-22T23:51:29.541Z,97.62
2018-07-22T23:53:58.799Z,97.96
2018-07-22T23:56:28.024Z,97.51
2018-07-22T23:58:57.274Z,97.54
